Best, Netherlands
Current Conditions -  °F | °C
As of 11:42 PM on Friday 24 Oct 2014 (Local Time) from EHEH Reporting Station
Rain Showers Rain Showers  
Wind Chill: 52°   Ceiling: 1700
Heat Index: 52°   Visibility: 4mi
Dew Point: 50°   Wind: 9mph
Humidity: 94%   Direction: 190°S
Pressure: 30"   Gusts: NA
Location:  51.51°N, 5.39°E
Report Text: EHEH 242142Z AUTO 19008KT 6000 -SHRA FEW014 OVC017 11/10 Q1016 WHT
Loading
Personal Weather Stations






























Interactive Weather Map
Tropical Storm Tracking
New forecast layout! Learn more

10-Day Weather Forecast

Advertisements
Track Severe Weather on mobile